sensor_id;sensor_type;location;lat;lon;timestamp;temperature;humidity
27559;DHT22;15002;52.028;5.670;2022-12-07T00:01:20;7.00;99.90
27559;DHT22;15002;52.028;5.670;2022-12-07T00:03:47;7.00;99.90
27559;DHT22;15002;52.028;5.670;2022-12-07T00:06:15;6.80;99.90
27559;DHT22;15002;52.028;5.670;2022-12-07T00:08:41;6.90;99.90
27559;DHT22;15002;52.028;5.670;2022-12-07T00:11:10;6.80;99.90
27559;DHT22;15002;52.028;5.670;2022-12-07T00:13:37;6.80;99.90
27559;DHT22;15002;52.028;5.670;2022-12-07T00:16:14;6.80;99.90
27559;DHT22;15002;52.028;5.670;2022-12-07T00:18:41;6.80;99.90
27559;DHT22;15002;52.028;5.670;2022-12-07T00:21:10;6.70;99.90
27559;DHT22;15002;52.028;5.670;2022-12-07T00:23:36;6.70;99.90
27559;DHT22;15002;52.028;5.670;2022-12-07T00:26:20;6.70;99.90
27559;DHT22;15002;52.028;5.670;2022-12-07T00:28:47;6.60;99.90
27559;DHT22;15002;52.028;5.670;2022-12-07T00:31:14;6.60;99.90
27559;DHT22;15002;52.028;5.670;2022-12-07T00:33:40;6.60;99.90
27559;DHT22;15002;52.028;5.670;2022-12-07T00:36:11;6.60;99.90
27559;DHT22;15002;52.028;5.670;2022-12-07T00:38:37;6.60;99.90
27559;DHT22;15002;52.028;5.670;2022-12-07T00:41:06;6.60;99.90
27559;DHT22;15002;52.028;5.670;2022-12-07T00:43:33;6.60;99.90
27559;DHT22;15002;52.028;5.670;2022-12-07T00:45:59;6.50;99.90
27559;DHT22;15002;52.028;5.670;2022-12-07T00:48:25;6.50;99.90
27559;DHT22;15002;52.028;5.670;2022-12-07T00:50:51;6.40;99.90
27559;DHT22;15002;52.028;5.670;2022-12-07T00:53:17;6.40;99.90
27559;DHT22;15002;52.028;5.670;2022-12-07T00:55:42;6.40;99.90
27559;DHT22;15002;52.028;5.670;2022-12-07T00:58:08;6.30;99.90
27559;DHT22;15002;52.028;5.670;2022-12-07T01:00:36;6.30;99.90
27559;DHT22;15002;52.028;5.670;2022-12-07T01:03:03;6.30;99.90
27559;DHT22;15002;52.028;5.670;2022-12-07T01:05:28;6.30;99.90
27559;DHT22;15002;52.028;5.670;2022-12-07T01:07:54;6.20;99.90
27559;DHT22;15002;52.028;5.670;2022-12-07T01:10:19;6.20;99.90
27559;DHT22;15002;52.028;5.670;2022-12-07T01:12:45;6.20;99.90
27559;DHT22;15002;52.028;5.670;2022-12-07T01:15:11;6.10;99.90
27559;DHT22;15002;52.028;5.670;2022-12-07T01:17:36;6.10;99.90
27559;DHT22;15002;52.028;5.670;2022-12-07T01:20:03;6.00;99.90
27559;DHT22;15002;52.028;5.670;2022-12-07T01:22:29;6.00;99.90
27559;DHT22;15002;52.028;5.670;2022-12-07T01:24:55;5.80;99.90
27559;DHT22;15002;52.028;5.670;2022-12-07T01:27:20;5.90;99.90
27559;DHT22;15002;52.028;5.670;2022-12-07T01:29:46;5.90;99.90
27559;DHT22;15002;52.028;5.670;2022-12-07T01:32:12;5.90;99.90
27559;DHT22;15002;52.028;5.670;2022-12-07T01:34:37;5.90;99.90
27559;DHT22;15002;52.028;5.670;2022-12-07T01:37:03;5.90;99.90
27559;DHT22;15002;52.028;5.670;2022-12-07T01:39:29;5.90;99.90
27559;DHT22;15002;52.028;5.670;2022-12-07T01:41:55;5.90;99.90
27559;DHT22;15002;52.028;5.670;2022-12-07T01:44:29;5.90;99.90
27559;DHT22;15002;52.028;5.670;2022-12-07T01:47:03;5.80;99.90
27559;DHT22;15002;52.028;5.670;2022-12-07T01:49:42;5.80;99.90
27559;DHT22;15002;52.028;5.670;2022-12-07T01:54:44;5.70;99.90
27559;DHT22;15002;52.028;5.670;2022-12-07T01:57:12;5.70;99.90
27559;DHT22;15002;52.028;5.670;2022-12-07T01:59:40;5.60;99.90
27559;DHT22;15002;52.028;5.670;2022-12-07T02:02:10;5.60;99.90
27559;DHT22;15002;52.028;5.670;2022-12-07T02:04:37;5.60;99.90
27559;DHT22;15002;52.028;5.670;2022-12-07T02:07:03;5.50;99.90
27559;DHT22;15002;52.028;5.670;2022-12-07T02:09:30;5.60;99.90
27559;DHT22;15002;52.028;5.670;2022-12-07T02:11:56;5.60;99.90
27559;DHT22;15002;52.028;5.670;2022-12-07T02:14:21;5.70;99.90
27559;DHT22;15002;52.028;5.670;2022-12-07T02:27:59;5.50;99.90
27559;DHT22;15002;52.028;5.670;2022-12-07T02:30:31;5.50;99.90
27559;DHT22;15002;52.028;5.670;2022-12-07T02:33:08;5.50;99.90
27559;DHT22;15002;52.028;5.670;2022-12-07T02:36:02;5.50;99.90
27559;DHT22;15002;52.028;5.670;2022-12-07T02:43:39;5.50;99.90
27559;DHT22;15002;52.028;5.670;2022-12-07T02:46:09;5.50;99.90
27559;DHT22;15002;52.028;5.670;2022-12-07T02:48:37;5.50;99.90
27559;DHT22;15002;52.028;5.670;2022-12-07T02:51:04;5.50;99.90
27559;DHT22;15002;52.028;5.670;2022-12-07T02:53:31;5.40;99.90
27559;DHT22;15002;52.028;5.670;2022-12-07T02:56:01;5.50;99.90
27559;DHT22;15002;52.028;5.670;2022-12-07T02:58:32;5.50;99.90
27559;DHT22;15002;52.028;5.670;2022-12-07T03:01:28;5.50;99.90
27559;DHT22;15002;52.028;5.670;2022-12-07T03:04:42;5.50;99.90
27559;DHT22;15002;52.028;5.670;2022-12-07T03:07:06;5.60;99.90
27559;DHT22;15002;52.028;5.670;2022-12-07T03:09:53;5.60;99.90
27559;DHT22;15002;52.028;5.670;2022-12-07T03:12:32;5.70;99.90
27559;DHT22;15002;52.028;5.670;2022-12-07T03:15:05;5.70;99.90
27559;DHT22;15002;52.028;5.670;2022-12-07T03:17:35;5.70;99.90
27559;DHT22;15002;52.028;5.670;2022-12-07T03:20:04;5.90;99.90
27559;DHT22;15002;52.028;5.670;2022-12-07T03:22:32;5.90;99.90
27559;DHT22;15002;52.028;5.670;2022-12-07T03:25:03;5.90;99.90
27559;DHT22;15002;52.028;5.670;2022-12-07T03:30:20;5.90;99.90
27559;DHT22;15002;52.028;5.670;2022-12-07T03:33:03;5.90;99.90
27559;DHT22;15002;52.028;5.670;2022-12-07T03:35:34;6.00;99.90
27559;DHT22;15002;52.028;5.670;2022-12-07T03:38:04;5.90;99.90
27559;DHT22;15002;52.028;5.670;2022-12-07T03:40:39;6.00;99.90
27559;DHT22;15002;52.028;5.670;2022-12-07T03:43:06;6.00;99.90
27559;DHT22;15002;52.028;5.670;2022-12-07T03:45:42;6.00;99.90
27559;DHT22;15002;52.028;5.670;2022-12-07T03:48:29;6.00;99.90
27559;DHT22;15002;52.028;5.670;2022-12-07T03:51:10;6.00;99.90
27559;DHT22;15002;52.028;5.670;2022-12-07T03:53:46;6.00;99.90
27559;DHT22;15002;52.028;5.670;2022-12-07T03:56:14;6.10;99.90
27559;DHT22;15002;52.028;5.670;2022-12-07T03:58:41;6.10;99.90
27559;DHT22;15002;52.028;5.670;2022-12-07T04:01:07;6.10;99.90
27559;DHT22;15002;52.028;5.670;2022-12-07T04:03:33;6.10;99.90
27559;DHT22;15002;52.028;5.670;2022-12-07T04:05:59;6.00;99.90
27559;DHT22;15002;52.028;5.670;2022-12-07T04:08:25;6.00;99.90
27559;DHT22;15002;52.028;5.670;2022-12-07T04:10:51;6.00;99.90
27559;DHT22;15002;52.028;5.670;2022-12-07T04:13:16;6.00;99.90
27559;DHT22;15002;52.028;5.670;2022-12-07T04:15:42;6.00;99.90
27559;DHT22;15002;52.028;5.670;2022-12-07T04:18:07;6.00;99.90
27559;DHT22;15002;52.028;5.670;2022-12-07T04:20:33;6.00;99.90
27559;DHT22;15002;52.028;5.670;2022-12-07T04:22:58;6.00;99.90
27559;DHT22;15002;52.028;5.670;2022-12-07T04:25:24;5.90;99.90
27559;DHT22;15002;52.028;5.670;2022-12-07T04:27:50;5.80;99.90
27559;DHT22;15002;52.028;5.670;2022-12-07T04:30:15;5.80;99.90
27559;DHT22;15002;52.028;5.670;2022-12-07T04:32:41;5.80;99.90
27559;DHT22;15002;52.028;5.670;2022-12-07T04:35:07;5.80;99.90
27559;DHT22;15002;52.028;5.670;2022-12-07T04:37:33;5.80;99.90
27559;DHT22;15002;52.028;5.670;2022-12-07T04:39:59;5.90;99.90
27559;DHT22;15002;52.028;5.670;2022-12-07T04:42:24;5.90;99.90
27559;DHT22;15002;52.028;5.670;2022-12-07T04:44:50;5.90;99.90
27559;DHT22;15002;52.028;5.670;2022-12-07T04:47:16;6.00;99.90
27559;DHT22;15002;52.028;5.670;2022-12-07T04:49:42;6.00;99.90
27559;DHT22;15002;52.028;5.670;2022-12-07T04:52:07;6.00;99.90
27559;DHT22;15002;52.028;5.670;2022-12-07T04:54:33;6.00;99.90
27559;DHT22;15002;52.028;5.670;2022-12-07T04:56:59;6.00;99.90
27559;DHT22;15002;52.028;5.670;2022-12-07T04:59:25;6.00;99.90
27559;DHT22;15002;52.028;5.670;2022-12-07T05:01:50;6.00;99.90
27559;DHT22;15002;52.028;5.670;2022-12-07T05:04:16;6.00;99.90
27559;DHT22;15002;52.028;5.670;2022-12-07T05:06:43;6.00;99.90
27559;DHT22;15002;52.028;5.670;2022-12-07T05:09:09;5.90;99.90
27559;DHT22;15002;52.028;5.670;2022-12-07T05:11:34;5.90;99.90
27559;DHT22;15002;52.028;5.670;2022-12-07T05:14:04;5.90;99.90
27559;DHT22;15002;52.028;5.670;2022-12-07T05:16:31;5.80;99.90
27559;DHT22;15002;52.028;5.670;2022-12-07T05:18:56;5.80;99.90
27559;DHT22;15002;52.028;5.670;2022-12-07T05:21:22;5.80;99.90
27559;DHT22;15002;52.028;5.670;2022-12-07T05:23:48;5.90;99.90
27559;DHT22;15002;52.028;5.670;2022-12-07T05:26:14;5.90;99.90
27559;DHT22;15002;52.028;5.670;2022-12-07T05:28:39;5.80;99.90
27559;DHT22;15002;52.028;5.670;2022-12-07T05:31:05;5.90;99.90
27559;DHT22;15002;52.028;5.670;2022-12-07T05:33:30;5.80;99.90
27559;DHT22;15002;52.028;5.670;2022-12-07T05:35:56;5.80;99.90
27559;DHT22;15002;52.028;5.670;2022-12-07T05:38:22;5.80;99.90
27559;DHT22;15002;52.028;5.670;2022-12-07T05:40:47;5.80;99.90
27559;DHT22;15002;52.028;5.670;2022-12-07T05:43:13;5.80;99.90
27559;DHT22;15002;52.028;5.670;2022-12-07T05:45:39;5.80;99.90
27559;DHT22;15002;52.028;5.670;2022-12-07T05:48:04;5.80;99.90
27559;DHT22;15002;52.028;5.670;2022-12-07T05:50:30;5.70;99.90
27559;DHT22;15002;52.028;5.670;2022-12-07T05:52:56;5.70;99.90
27559;DHT22;15002;52.028;5.670;2022-12-07T05:55:21;5.60;99.90
27559;DHT22;15002;52.028;5.670;2022-12-07T05:57:47;5.60;99.90
27559;DHT22;15002;52.028;5.670;2022-12-07T06:00:31;5.60;99.90
27559;DHT22;15002;52.028;5.670;2022-12-07T06:02:57;5.50;99.90
27559;DHT22;15002;52.028;5.670;2022-12-07T06:05:23;5.40;99.90
27559;DHT22;15002;52.028;5.670;2022-12-07T06:07:49;5.40;99.90
27559;DHT22;15002;52.028;5.670;2022-12-07T06:10:15;5.40;99.90
27559;DHT22;15002;52.028;5.670;2022-12-07T06:12:40;5.40;99.90
27559;DHT22;15002;52.028;5.670;2022-12-07T06:15:09;5.40;99.90
27559;DHT22;15002;52.028;5.670;2022-12-07T06:17:35;5.40;99.90
27559;DHT22;15002;52.028;5.670;2022-12-07T06:20:02;5.40;99.90
27559;DHT22;15002;52.028;5.670;2022-12-07T06:22:28;5.40;99.90
27559;DHT22;15002;52.028;5.670;2022-12-07T06:24:53;5.40;99.90
27559;DHT22;15002;52.028;5.670;2022-12-07T06:27:19;5.30;99.90
27559;DHT22;15002;52.028;5.670;2022-12-07T06:29:45;5.40;99.90
27559;DHT22;15002;52.028;5.670;2022-12-07T06:32:10;5.30;99.90
27559;DHT22;15002;52.028;5.670;2022-12-07T06:34:37;5.30;99.90
27559;DHT22;15002;52.028;5.670;2022-12-07T06:37:03;5.30;99.90
27559;DHT22;15002;52.028;5.670;2022-12-07T06:39:29;5.40;99.90
27559;DHT22;15002;52.028;5.670;2022-12-07T06:41:55;5.40;99.90
27559;DHT22;15002;52.028;5.670;2022-12-07T06:44:21;5.50;99.90
27559;DHT22;15002;52.028;5.670;2022-12-07T06:46:48;5.50;99.90
27559;DHT22;15002;52.028;5.670;2022-12-07T06:49:14;5.50;99.90
27559;DHT22;15002;52.028;5.670;2022-12-07T06:51:40;5.60;99.90
27559;DHT22;15002;52.028;5.670;2022-12-07T06:54:10;5.50;99.90
27559;DHT22;15002;52.028;5.670;2022-12-07T06:56:36;5.50;99.90
27559;DHT22;15002;52.028;5.670;2022-12-07T06:59:02;5.50;99.90
27559;DHT22;15002;52.028;5.670;2022-12-07T07:01:28;5.60;99.90
27559;DHT22;15002;52.028;5.670;2022-12-07T07:03:54;5.50;99.90
27559;DHT22;15002;52.028;5.670;2022-12-07T07:06:19;5.50;99.90
27559;DHT22;15002;52.028;5.670;2022-12-07T07:08:45;5.50;99.90
27559;DHT22;15002;52.028;5.670;2022-12-07T07:11:12;5.50;99.90
27559;DHT22;15002;52.028;5.670;2022-12-07T07:13:38;5.50;99.90
27559;DHT22;15002;52.028;5.670;2022-12-07T07:16:04;5.50;99.90
27559;DHT22;15002;52.028;5.670;2022-12-07T07:18:30;5.50;99.90
27559;DHT22;15002;52.028;5.670;2022-12-07T07:20:56;5.50;99.90
27559;DHT22;15002;52.028;5.670;2022-12-07T07:23:21;5.50;99.90
27559;DHT22;15002;52.028;5.670;2022-12-07T07:25:47;5.50;99.90
27559;DHT22;15002;52.028;5.670;2022-12-07T07:28:13;5.50;99.90
27559;DHT22;15002;52.028;5.670;2022-12-07T07:30:39;5.50;99.90
27559;DHT22;15002;52.028;5.670;2022-12-07T07:33:05;5.50;99.90
27559;DHT22;15002;52.028;5.670;2022-12-07T07:35:33;5.50;99.90
27559;DHT22;15002;52.028;5.670;2022-12-07T07:37:59;5.40;99.90
27559;DHT22;15002;52.028;5.670;2022-12-07T07:40:25;5.40;99.90
27559;DHT22;15002;52.028;5.670;2022-12-07T07:42:52;5.40;99.90
27559;DHT22;15002;52.028;5.670;2022-12-07T07:45:19;5.40;99.90
27559;DHT22;15002;52.028;5.670;2022-12-07T07:47:45;5.40;99.90
27559;DHT22;15002;52.028;5.670;2022-12-07T07:50:10;5.50;99.90
27559;DHT22;15002;52.028;5.670;2022-12-07T07:52:36;5.40;99.90
27559;DHT22;15002;52.028;5.670;2022-12-07T07:55:02;5.40;99.90
27559;DHT22;15002;52.028;5.670;2022-12-07T07:57:28;5.40;99.90
27559;DHT22;15002;52.028;5.670;2022-12-07T07:59:54;5.30;99.90
27559;DHT22;15002;52.028;5.670;2022-12-07T08:02:20;5.40;99.90
27559;DHT22;15002;52.028;5.670;2022-12-07T08:04:47;5.40;99.90
27559;DHT22;15002;52.028;5.670;2022-12-07T08:07:14;5.40;99.90
27559;DHT22;15002;52.028;5.670;2022-12-07T08:09:40;5.60;99.90
27559;DHT22;15002;52.028;5.670;2022-12-07T08:12:06;5.70;99.90
27559;DHT22;15002;52.028;5.670;2022-12-07T08:14:32;5.70;99.90
27559;DHT22;15002;52.028;5.670;2022-12-07T08:16:59;5.60;99.90
27559;DHT22;15002;52.028;5.670;2022-12-07T08:19:24;5.70;99.90
27559;DHT22;15002;52.028;5.670;2022-12-07T08:21:50;5.90;99.90
27559;DHT22;15002;52.028;5.670;2022-12-07T08:24:16;5.90;99.90
27559;DHT22;15002;52.028;5.670;2022-12-07T08:26:42;6.00;99.90
27559;DHT22;15002;52.028;5.670;2022-12-07T08:29:08;6.10;99.90
27559;DHT22;15002;52.028;5.670;2022-12-07T08:31:33;6.20;99.90
27559;DHT22;15002;52.028;5.670;2022-12-07T08:33:59;6.20;99.90
27559;DHT22;15002;52.028;5.670;2022-12-07T08:36:26;6.20;99.90
27559;DHT22;15002;52.028;5.670;2022-12-07T08:38:51;6.30;99.90
27559;DHT22;15002;52.028;5.670;2022-12-07T08:41:17;6.40;99.90
27559;DHT22;15002;52.028;5.670;2022-12-07T08:43:43;6.40;99.90
27559;DHT22;15002;52.028;5.670;2022-12-07T08:46:19;6.50;99.90
27559;DHT22;15002;52.028;5.670;2022-12-07T08:48:53;6.40;99.90
27559;DHT22;15002;52.028;5.670;2022-12-07T08:51:21;6.50;99.90
27559;DHT22;15002;52.028;5.670;2022-12-07T08:53:49;6.60;99.90
27559;DHT22;15002;52.028;5.670;2022-12-07T08:56:15;6.70;99.90
27559;DHT22;15002;52.028;5.670;2022-12-07T08:58:41;6.80;99.90
27559;DHT22;15002;52.028;5.670;2022-12-07T09:01:07;6.80;99.90
27559;DHT22;15002;52.028;5.670;2022-12-07T09:03:32;6.90;99.90
27559;DHT22;15002;52.028;5.670;2022-12-07T09:05:59;6.80;99.90
27559;DHT22;15002;52.028;5.670;2022-12-07T09:08:29;6.90;99.90
27559;DHT22;15002;52.028;5.670;2022-12-07T09:10:56;7.00;99.90
27559;DHT22;15002;52.028;5.670;2022-12-07T09:13:22;7.00;99.90
27559;DHT22;15002;52.028;5.670;2022-12-07T09:15:48;7.20;99.90
27559;DHT22;15002;52.028;5.670;2022-12-07T09:18:14;7.20;99.90
27559;DHT22;15002;52.028;5.670;2022-12-07T09:20:39;7.30;99.90
27559;DHT22;15002;52.028;5.670;2022-12-07T09:23:06;7.30;99.90
27559;DHT22;15002;52.028;5.670;2022-12-07T09:25:33;7.40;99.90
27559;DHT22;15002;52.028;5.670;2022-12-07T09:27:59;7.50;99.90
27559;DHT22;15002;52.028;5.670;2022-12-07T09:30:25;7.60;99.90
27559;DHT22;15002;52.028;5.670;2022-12-07T09:32:53;7.70;99.90
27559;DHT22;15002;52.028;5.670;2022-12-07T09:35:19;7.60;99.90
27559;DHT22;15002;52.028;5.670;2022-12-07T09:37:45;7.60;99.90
27559;DHT22;15002;52.028;5.670;2022-12-07T09:40:11;7.70;99.90
27559;DHT22;15002;52.028;5.670;2022-12-07T09:42:43;7.80;99.90
27559;DHT22;15002;52.028;5.670;2022-12-07T09:45:24;8.00;99.90
27559;DHT22;15002;52.028;5.670;2022-12-07T09:47:50;8.10;99.90
27559;DHT22;15002;52.028;5.670;2022-12-07T09:50:20;8.20;99.90
27559;DHT22;15002;52.028;5.670;2022-12-07T09:52:47;8.40;99.90
27559;DHT22;15002;52.028;5.670;2022-12-07T09:55:16;8.50;99.90
27559;DHT22;15002;52.028;5.670;2022-12-07T09:57:42;8.60;99.90
27559;DHT22;15002;52.028;5.670;2022-12-07T10:00:17;8.70;99.90
27559;DHT22;15002;52.028;5.670;2022-12-07T10:02:47;9.00;99.90
27559;DHT22;15002;52.028;5.670;2022-12-07T10:05:32;9.10;99.90
27559;DHT22;15002;52.028;5.670;2022-12-07T10:07:59;9.00;99.90
27559;DHT22;15002;52.028;5.670;2022-12-07T10:10:33;9.00;99.90
27559;DHT22;15002;52.028;5.670;2022-12-07T10:13:08;9.00;99.90
27559;DHT22;15002;52.028;5.670;2022-12-07T10:15:53;8.90;99.90
27559;DHT22;15002;52.028;5.670;2022-12-07T10:20:46;8.80;99.90
27559;DHT22;15002;52.028;5.670;2022-12-07T10:23:17;8.80;99.90
27559;DHT22;15002;52.028;5.670;2022-12-07T10:25:44;8.80;99.90
27559;DHT22;15002;52.028;5.670;2022-12-07T10:28:16;8.90;99.90
27559;DHT22;15002;52.028;5.670;2022-12-07T10:30:54;9.00;99.90
27559;DHT22;15002;52.028;5.670;2022-12-07T10:36:01;9.00;99.90
27559;DHT22;15002;52.028;5.670;2022-12-07T10:38:44;9.10;99.90
27559;DHT22;15002;52.028;5.670;2022-12-07T10:41:11;9.20;99.90
27559;DHT22;15002;52.028;5.670;2022-12-07T10:43:36;9.30;99.90
27559;DHT22;15002;52.028;5.670;2022-12-07T10:57:51;9.20;99.90
27559;DHT22;15002;52.028;5.670;2022-12-07T11:00:25;9.30;99.90
27559;DHT22;15002;52.028;5.670;2022-12-07T11:08:16;9.20;99.90
27559;DHT22;15002;52.028;5.670;2022-12-07T11:11:00;9.10;99.90
27559;DHT22;15002;52.028;5.670;2022-12-07T11:19:06;9.10;99.90
27559;DHT22;15002;52.028;5.670;2022-12-07T11:21:40;9.20;99.90
27559;DHT22;15002;52.028;5.670;2022-12-07T11:35:11;9.40;99.90
27559;DHT22;15002;52.028;5.670;2022-12-07T11:37:42;9.50;99.90
27559;DHT22;15002;52.028;5.670;2022-12-07T11:40:33;9.40;99.90
27559;DHT22;15002;52.028;5.670;2022-12-07T11:43:26;9.50;99.90
27559;DHT22;15002;52.028;5.670;2022-12-07T11:46:11;9.60;99.90
27559;DHT22;15002;52.028;5.670;2022-12-07T11:48:46;9.70;99.90
27559;DHT22;15002;52.028;5.670;2022-12-07T11:51:12;9.70;99.90
27559;DHT22;15002;52.028;5.670;2022-12-07T11:53:57;9.60;99.90
27559;DHT22;15002;52.028;5.670;2022-12-07T11:56:26;9.70;99.90
27559;DHT22;15002;52.028;5.670;2022-12-07T11:59:19;9.60;99.90
27559;DHT22;15002;52.028;5.670;2022-12-07T12:05:02;9.50;99.90
27559;DHT22;15002;52.028;5.670;2022-12-07T12:07:31;9.40;99.90
27559;DHT22;15002;52.028;5.670;2022-12-07T12:10:06;9.50;99.90
27559;DHT22;15002;52.028;5.670;2022-12-07T12:12:58;9.40;99.90
27559;DHT22;15002;52.028;5.670;2022-12-07T12:20:48;9.40;99.90
27559;DHT22;15002;52.028;5.670;2022-12-07T12:23:25;9.40;99.90
27559;DHT22;15002;52.028;5.670;2022-12-07T12:25:59;9.50;99.90
27559;DHT22;15002;52.028;5.670;2022-12-07T12:28:41;9.50;99.90
27559;DHT22;15002;52.028;5.670;2022-12-07T12:33:57;9.50;99.90
27559;DHT22;15002;52.028;5.670;2022-12-07T12:51:49;9.50;99.90
27559;DHT22;15002;52.028;5.670;2022-12-07T12:56:50;9.50;99.90
27559;DHT22;15002;52.028;5.670;2022-12-07T13:01:46;9.40;99.90
27559;DHT22;15002;52.028;5.670;2022-12-07T13:04:37;9.40;99.90
27559;DHT22;15002;52.028;5.670;2022-12-07T13:07:04;9.40;99.90
27559;DHT22;15002;52.028;5.670;2022-12-07T13:09:32;9.40;99.90
27559;DHT22;15002;52.028;5.670;2022-12-07T13:12:12;9.50;99.90
27559;DHT22;15002;52.028;5.670;2022-12-07T13:14:58;9.50;99.90
27559;DHT22;15002;52.028;5.670;2022-12-07T13:19:59;9.70;99.90
27559;DHT22;15002;52.028;5.670;2022-12-07T13:25:11;9.70;99.90
27559;DHT22;15002;52.028;5.670;2022-12-07T13:27:41;9.80;99.90
27559;DHT22;15002;52.028;5.670;2022-12-07T13:30:17;9.80;99.90
27559;DHT22;15002;52.028;5.670;2022-12-07T13:32:43;9.90;99.90
27559;DHT22;15002;52.028;5.670;2022-12-07T13:37:53;10.00;99.90
27559;DHT22;15002;52.028;5.670;2022-12-07T13:40:20;10.00;99.90
27559;DHT22;15002;52.028;5.670;2022-12-07T13:42:46;9.90;99.90
27559;DHT22;15002;52.028;5.670;2022-12-07T13:45:29;10.10;99.90
27559;DHT22;15002;52.028;5.670;2022-12-07T13:48:45;10.10;99.90
27559;DHT22;15002;52.028;5.670;2022-12-07T13:51:22;10.10;99.90
27559;DHT22;15002;52.028;5.670;2022-12-07T13:53:54;10.00;99.90
27559;DHT22;15002;52.028;5.670;2022-12-07T13:56:34;9.80;99.90
27559;DHT22;15002;52.028;5.670;2022-12-07T13:59:00;9.70;99.90
27559;DHT22;15002;52.028;5.670;2022-12-07T14:01:26;9.70;99.90
27559;DHT22;15002;52.028;5.670;2022-12-07T14:03:52;9.60;99.90
27559;DHT22;15002;52.028;5.670;2022-12-07T14:06:23;9.50;99.90
27559;DHT22;15002;52.028;5.670;2022-12-07T14:09:05;9.50;99.90
27559;DHT22;15002;52.028;5.670;2022-12-07T14:11:31;9.40;99.90
27559;DHT22;15002;52.028;5.670;2022-12-07T14:14:01;9.40;99.90
27559;DHT22;15002;52.028;5.670;2022-12-07T14:16:37;9.30;99.90
27559;DHT22;15002;52.028;5.670;2022-12-07T14:19:05;9.20;99.90
27559;DHT22;15002;52.028;5.670;2022-12-07T14:22:06;9.20;99.90
27559;DHT22;15002;52.028;5.670;2022-12-07T14:24:41;9.20;99.90
27559;DHT22;15002;52.028;5.670;2022-12-07T14:27:20;9.20;99.90
27559;DHT22;15002;52.028;5.670;2022-12-07T14:29:47;9.20;99.90
27559;DHT22;15002;52.028;5.670;2022-12-07T14:35:02;9.10;99.90
27559;DHT22;15002;52.028;5.670;2022-12-07T14:37:29;9.10;99.90
27559;DHT22;15002;52.028;5.670;2022-12-07T14:39:56;9.00;99.90
27559;DHT22;15002;52.028;5.670;2022-12-07T14:42:26;9.00;99.90
27559;DHT22;15002;52.028;5.670;2022-12-07T14:44:52;9.00;99.90
27559;DHT22;15002;52.028;5.670;2022-12-07T14:47:18;9.10;99.90
27559;DHT22;15002;52.028;5.670;2022-12-07T14:49:43;9.00;99.90
27559;DHT22;15002;52.028;5.670;2022-12-07T14:52:14;9.00;99.90
27559;DHT22;15002;52.028;5.670;2022-12-07T14:54:41;9.00;99.90
27559;DHT22;15002;52.028;5.670;2022-12-07T14:57:09;9.00;99.90
27559;DHT22;15002;52.028;5.670;2022-12-07T14:59:35;9.10;99.90
27559;DHT22;15002;52.028;5.670;2022-12-07T15:02:01;9.00;99.90
27559;DHT22;15002;52.028;5.670;2022-12-07T15:04:26;9.00;99.90
27559;DHT22;15002;52.028;5.670;2022-12-07T15:07:00;8.90;99.90
27559;DHT22;15002;52.028;5.670;2022-12-07T15:09:26;8.90;99.90
27559;DHT22;15002;52.028;5.670;2022-12-07T15:11:52;8.90;99.90
27559;DHT22;15002;52.028;5.670;2022-12-07T15:14:17;9.00;99.90
27559;DHT22;15002;52.028;5.670;2022-12-07T15:16:43;9.00;99.90
27559;DHT22;15002;52.028;5.670;2022-12-07T15:19:23;8.90;99.90
27559;DHT22;15002;52.028;5.670;2022-12-07T15:21:51;8.80;99.90
27559;DHT22;15002;52.028;5.670;2022-12-07T15:24:17;8.80;99.90
27559;DHT22;15002;52.028;5.670;2022-12-07T15:26:43;8.80;99.90
27559;DHT22;15002;52.028;5.670;2022-12-07T15:29:10;8.70;99.90
27559;DHT22;15002;52.028;5.670;2022-12-07T15:31:36;8.70;99.90
27559;DHT22;15002;52.028;5.670;2022-12-07T15:34:02;8.80;99.90
27559;DHT22;15002;52.028;5.670;2022-12-07T15:36:30;8.80;99.90
27559;DHT22;15002;52.028;5.670;2022-12-07T15:38:56;8.70;99.90
27559;DHT22;15002;52.028;5.670;2022-12-07T15:41:22;8.60;99.90
27559;DHT22;15002;52.028;5.670;2022-12-07T15:43:48;8.70;99.90
27559;DHT22;15002;52.028;5.670;2022-12-07T15:46:38;8.70;99.90
27559;DHT22;15002;52.028;5.670;2022-12-07T15:49:09;8.70;99.90
27559;DHT22;15002;52.028;5.670;2022-12-07T15:51:35;8.80;99.90
27559;DHT22;15002;52.028;5.670;2022-12-07T15:54:01;8.70;99.90
27559;DHT22;15002;52.028;5.670;2022-12-07T15:56:26;8.70;99.90
27559;DHT22;15002;52.028;5.670;2022-12-07T15:58:52;8.80;99.90
27559;DHT22;15002;52.028;5.670;2022-12-07T16:01:19;8.70;99.90
27559;DHT22;15002;52.028;5.670;2022-12-07T16:03:47;8.70;99.90
27559;DHT22;15002;52.028;5.670;2022-12-07T16:06:16;8.60;99.90
27559;DHT22;15002;52.028;5.670;2022-12-07T16:08:43;8.70;99.90
27559;DHT22;15002;52.028;5.670;2022-12-07T16:11:09;8.60;99.90
27559;DHT22;15002;52.028;5.670;2022-12-07T16:13:35;8.60;99.90
27559;DHT22;15002;52.028;5.670;2022-12-07T16:16:05;8.50;99.90
27559;DHT22;15002;52.028;5.670;2022-12-07T16:18:31;8.50;99.90
27559;DHT22;15002;52.028;5.670;2022-12-07T16:20:57;8.50;99.90
27559;DHT22;15002;52.028;5.670;2022-12-07T16:23:22;8.40;99.90
27559;DHT22;15002;52.028;5.670;2022-12-07T16:25:48;8.40;99.90
27559;DHT22;15002;52.028;5.670;2022-12-07T16:28:14;8.40;99.90
27559;DHT22;15002;52.028;5.670;2022-12-07T16:30:39;8.50;99.90
27559;DHT22;15002;52.028;5.670;2022-12-07T16:33:05;8.40;99.90
27559;DHT22;15002;52.028;5.670;2022-12-07T16:35:31;8.40;99.90
27559;DHT22;15002;52.028;5.670;2022-12-07T16:37:57;8.40;99.90
27559;DHT22;15002;52.028;5.670;2022-12-07T16:40:22;8.30;99.90
27559;DHT22;15002;52.028;5.670;2022-12-07T16:42:48;8.30;99.90
27559;DHT22;15002;52.028;5.670;2022-12-07T16:45:13;8.30;99.90
27559;DHT22;15002;52.028;5.670;2022-12-07T16:47:40;8.30;99.90
27559;DHT22;15002;52.028;5.670;2022-12-07T16:50:06;8.20;99.90
27559;DHT22;15002;52.028;5.670;2022-12-07T16:52:33;8.20;99.90
27559;DHT22;15002;52.028;5.670;2022-12-07T16:54:59;8.20;99.90
27559;DHT22;15002;52.028;5.670;2022-12-07T16:57:24;8.10;99.90
27559;DHT22;15002;52.028;5.670;2022-12-07T16:59:51;8.10;99.90
27559;DHT22;15002;52.028;5.670;2022-12-07T17:02:17;8.10;99.90
27559;DHT22;15002;52.028;5.670;2022-12-07T17:04:43;8.10;99.90
27559;DHT22;15002;52.028;5.670;2022-12-07T17:07:09;8.00;99.90
27559;DHT22;15002;52.028;5.670;2022-12-07T17:09:35;8.00;99.90
27559;DHT22;15002;52.028;5.670;2022-12-07T17:12:01;8.00;99.90
27559;DHT22;15002;52.028;5.670;2022-12-07T17:14:27;8.00;99.90
27559;DHT22;15002;52.028;5.670;2022-12-07T17:17:11;8.00;99.90
27559;DHT22;15002;52.028;5.670;2022-12-07T17:19:37;8.00;99.90
27559;DHT22;15002;52.028;5.670;2022-12-07T17:22:03;8.00;99.90
27559;DHT22;15002;52.028;5.670;2022-12-07T17:24:28;7.90;99.90
27559;DHT22;15002;52.028;5.670;2022-12-07T17:26:54;7.90;99.90
27559;DHT22;15002;52.028;5.670;2022-12-07T17:29:19;7.90;99.90
27559;DHT22;15002;52.028;5.670;2022-12-07T17:31:47;7.90;99.90
27559;DHT22;15002;52.028;5.670;2022-12-07T17:34:14;7.90;99.90
27559;DHT22;15002;52.028;5.670;2022-12-07T17:36:40;7.90;99.90
27559;DHT22;15002;52.028;5.670;2022-12-07T17:39:08;8.00;99.90